createdAt,value
2017-10-11T00:01:32.940Z,100685.11
2017-10-11T00:04:01.608Z,100687.75
2017-10-11T00:06:30.239Z,100676.59
2017-10-11T00:08:58.862Z,100678.81
2017-10-11T00:11:27.522Z,100678.30
2017-10-11T00:13:56.147Z,100675.30
2017-10-11T00:16:24.764Z,100679.59
2017-10-11T00:18:53.450Z,100682.22
2017-10-11T00:21:22.063Z,100680.87
2017-10-11T00:23:50.844Z,100680.47
2017-10-11T00:26:19.528Z,100676.12
2017-10-11T00:28:48.159Z,100679.64
2017-10-11T00:31:16.813Z,100685.31
2017-10-11T00:33:45.524Z,100687.33
2017-10-11T00:36:14.138Z,100680.56
2017-10-11T00:38:42.757Z,100687.02
2017-10-11T00:41:11.411Z,100687.89
2017-10-11T00:43:40.072Z,100689.66
2017-10-11T00:46:08.709Z,100687.43
2017-10-11T00:48:37.333Z,100687.02
2017-10-11T00:51:06.006Z,100684.97
2017-10-11T00:53:34.663Z,100686.66
2017-10-11T00:56:03.000Z,100685.84
2017-10-11T00:58:31.459Z,100688.37
2017-10-11T01:01:00.119Z,100687.06
2017-10-11T01:03:28.733Z,100692.75
2017-10-11T01:05:57.423Z,100679.08
2017-10-11T01:08:26.059Z,100678.20
2017-10-11T01:10:54.686Z,100677.69
2017-10-11T01:13:23.355Z,100680.00
2017-10-11T01:15:51.999Z,100669.27
2017-10-11T01:18:20.635Z,100675.25
2017-10-11T01:20:49.343Z,100679.59
2017-10-11T01:23:18.027Z,100674.57
2017-10-11T01:25:46.768Z,100678.86
2017-10-11T01:28:15.417Z,100687.02
2017-10-11T01:30:44.047Z,100683.61
2017-10-11T01:33:12.801Z,100683.61
2017-10-11T01:35:41.137Z,100680.56
2017-10-11T01:38:09.834Z,100680.61
2017-10-11T01:40:38.190Z,100672.97
2017-10-11T01:43:06.483Z,100679.47
2017-10-11T01:45:34.800Z,100681.95
2017-10-11T01:48:03.530Z,100676.01
2017-10-11T01:50:31.847Z,100676.94
2017-10-11T01:53:00.214Z,100682.14
2017-10-11T01:55:28.873Z,100683.09
2017-10-11T01:57:57.498Z,100681.32
2017-10-11T02:00:26.149Z,100683.90
2017-10-11T02:02:54.832Z,100679.16
2017-10-11T02:05:23.539Z,100678.75
2017-10-11T02:07:52.147Z,100677.87
2017-10-11T02:10:20.827Z,100680.97
2017-10-11T02:12:49.345Z,100681.84
2017-10-11T02:15:17.972Z,100676.64
2017-10-11T02:17:47.219Z,100672.81
2017-10-11T02:20:15.905Z,100673.33
2017-10-11T02:22:47.458Z,100675.03
2017-10-11T02:25:15.813Z,100672.41
2017-10-11T02:27:45.558Z,100668.12
2017-10-11T02:30:14.988Z,100667.75
2017-10-11T02:32:43.516Z,100664.25
2017-10-11T02:35:12.128Z,100664.25
2017-10-11T02:37:40.803Z,100662.08
2017-10-11T02:40:09.423Z,100660.84
2017-10-11T02:42:38.048Z,100665.63
2017-10-11T02:45:06.737Z,100668.22
2017-10-11T02:47:38.250Z,100671.16
2017-10-11T02:50:06.860Z,100669.00
2017-10-11T02:52:35.606Z,100664.39
2017-10-11T02:55:04.237Z,100671.63
2017-10-11T02:57:36.704Z,100664.30
2017-10-11T03:00:05.383Z,100663.47
2017-10-11T03:02:34.026Z,100657.53
2017-10-11T03:05:02.662Z,100664.76
2017-10-11T03:07:35.204Z,100652.37
2017-10-11T03:10:03.825Z,100663.16
2017-10-11T03:12:32.498Z,100655.78
2017-10-11T03:15:01.114Z,100650.20
2017-10-11T03:17:33.973Z,100655.73
2017-10-11T03:20:02.610Z,100645.92
2017-10-11T03:22:31.271Z,100648.91
2017-10-11T03:24:59.891Z,100654.17
2017-10-11T03:27:29.445Z,100654.08
2017-10-11T03:30:03.054Z,100651.86
2017-10-11T03:32:31.753Z,100648.86
2017-10-11T03:35:00.372Z,100644.12
2017-10-11T03:37:34.056Z,100640.25
2017-10-11T03:40:02.694Z,100648.50
2017-10-11T03:42:31.362Z,100643.23
2017-10-11T03:44:59.973Z,100640.20
2017-10-11T03:47:28.639Z,100634.25
2017-10-11T03:49:57.311Z,100638.95
2017-10-11T03:52:25.955Z,100635.03
2017-10-11T03:54:54.616Z,100628.13
2017-10-11T03:57:23.226Z,100632.41
2017-10-11T03:59:51.885Z,100635.86
2017-10-11T04:02:20.513Z,100635.03
2017-10-11T04:04:49.122Z,100635.41
2017-10-11T04:07:17.787Z,100625.12
2017-10-11T04:09:46.489Z,100627.66
2017-10-11T04:12:15.013Z,100626.00
2017-10-11T04:14:43.651Z,100626.83
2017-10-11T04:17:12.182Z,100630.70
2017-10-11T04:19:40.802Z,100631.16
2017-10-11T04:22:09.322Z,100635.45
2017-10-11T04:24:37.877Z,100627.25
2017-10-11T04:27:06.397Z,100623.73
2017-10-11T04:32:40.043Z,100622.55
2017-10-11T04:35:08.715Z,100623.78
2017-10-11T04:37:38.538Z,100619.92
2017-10-11T04:40:28.146Z,100620.74
2017-10-11T04:42:57.179Z,100620.33
2017-10-11T04:45:25.652Z,100609.13
2017-10-11T04:47:55.372Z,100611.25
2017-10-11T04:50:23.842Z,100613.83
2017-10-11T04:52:52.535Z,100609.08
2017-10-11T04:55:21.152Z,100609.55
2017-10-11T04:57:49.785Z,100616.92
2017-10-11T05:00:26.759Z,100617.29
2017-10-11T05:02:57.289Z,100620.74
2017-10-11T05:05:27.815Z,100623.73
2017-10-11T05:07:56.514Z,100617.65
2017-10-11T05:10:25.122Z,100618.53
2017-10-11T05:12:53.770Z,100622.38
2017-10-11T05:15:23.932Z,100622.81
2017-10-11T05:20:32.917Z,100619.82
2017-10-11T05:23:01.538Z,100614.66
2017-10-11T05:25:30.198Z,100623.27
2017-10-11T05:27:58.835Z,100610.84
2017-10-11T05:30:27.523Z,100610.02
2017-10-11T05:32:56.138Z,100605.77
2017-10-11T05:35:24.793Z,100615.69
2017-10-11T05:37:53.414Z,100608.05
2017-10-11T05:40:22.090Z,100612.38
2017-10-11T05:42:50.711Z,100613.25
2017-10-11T05:45:19.388Z,100608.05
2017-10-11T05:47:48.007Z,100610.26
2017-10-11T05:50:16.695Z,100612.84
2017-10-11T05:52:45.354Z,100612.42
2017-10-11T05:55:13.998Z,100615.05
2017-10-11T05:57:42.680Z,100614.64
2017-10-11T06:00:11.310Z,100613.45
2017-10-11T06:02:39.928Z,100603.13
2017-10-11T06:05:08.607Z,100608.24
2017-10-11T06:07:37.091Z,100608.66
2017-10-11T06:10:05.743Z,100609.53
2017-10-11T06:12:34.431Z,100606.13
2017-10-11T06:15:03.106Z,100612.63
2017-10-11T06:17:38.242Z,100613.81
2017-10-11T06:20:06.898Z,100612.94
2017-10-11T06:22:35.610Z,100618.14
2017-10-11T06:25:04.256Z,100618.09
2017-10-11T06:27:34.834Z,100608.66
2017-10-11T06:30:03.480Z,100610.77
2017-10-11T06:32:32.150Z,100612.52
2017-10-11T06:35:00.770Z,100615.88
2017-10-11T06:37:31.690Z,100615.47
2017-10-11T06:40:00.494Z,100602.16
2017-10-11T06:42:29.182Z,100590.18
2017-10-11T06:44:57.802Z,100600.03
2017-10-11T06:47:26.427Z,100616.76
2017-10-11T06:49:55.100Z,100615.47
2017-10-11T06:52:23.760Z,100617.63
2017-10-11T06:54:52.434Z,100620.63
2017-10-11T06:57:21.070Z,100620.63
2017-10-11T06:59:49.730Z,100623.98
2017-10-11T07:02:18.354Z,100621.87
2017-10-11T07:04:47.028Z,100624.35
2017-10-11T07:07:15.653Z,100631.62
2017-10-11T07:09:44.354Z,100623.06
2017-10-11T07:12:13.018Z,100626.27
2017-10-11T07:14:41.626Z,100630.19
2017-10-11T07:17:10.307Z,100631.00
2017-10-11T07:19:38.928Z,100637.40
2017-10-11T07:22:07.639Z,100642.88
2017-10-11T07:24:36.250Z,100642.78
2017-10-11T07:27:04.918Z,100633.28
2017-10-11T07:29:33.537Z,100636.55
2017-10-11T07:32:02.150Z,100628.80
2017-10-11T07:34:30.833Z,100633.91
2017-10-11T07:36:59.471Z,100630.09
2017-10-11T07:39:28.132Z,100636.91
2017-10-11T07:41:56.747Z,100633.91
2017-10-11T07:44:26.136Z,100631.75
2017-10-11T07:46:54.749Z,100637.17
2017-10-11T07:49:23.409Z,100627.70
2017-10-11T07:51:52.096Z,100629.31
2017-10-11T07:54:20.800Z,100628.06
2017-10-11T07:56:49.511Z,100634.88
2017-10-11T07:59:18.131Z,100640.00
2017-10-11T08:01:46.798Z,100641.70
2017-10-11T08:04:15.410Z,100638.14
2017-10-11T08:06:43.870Z,100645.69
2017-10-11T08:09:12.435Z,100644.34
2017-10-11T08:11:41.087Z,100651.11
2017-10-11T08:14:09.789Z,100647.58
2017-10-11T08:16:38.403Z,100651.36
2017-10-11T08:19:07.067Z,100657.30
2017-10-11T08:21:35.714Z,100652.86
2017-10-11T08:24:04.394Z,100654.09
2017-10-11T08:26:33.011Z,100652.70
2017-10-11T08:29:01.687Z,100655.70
2017-10-11T08:31:30.318Z,100662.45
2017-10-11T08:33:58.922Z,100667.16
2017-10-11T08:36:27.598Z,100666.69
2017-10-11T08:38:56.241Z,100668.34
2017-10-11T08:41:24.538Z,100662.66
2017-10-11T08:43:53.234Z,100662.30
2017-10-11T08:46:21.896Z,100660.09
2017-10-11T08:48:50.543Z,100667.31
2017-10-11T08:51:19.230Z,100673.31
2017-10-11T08:53:47.845Z,100662.05
2017-10-11T08:56:16.463Z,100672.74
2017-10-11T08:58:45.126Z,100671.77
2017-10-11T09:01:13.750Z,100671.64
2017-10-11T09:03:42.432Z,100674.59
2017-10-11T09:06:11.083Z,100670.20
2017-10-11T09:08:39.774Z,100679.55
2017-10-11T09:11:08.237Z,100678.52
2017-10-11T09:13:36.753Z,100673.25
2017-10-11T09:16:05.364Z,100670.98
2017-10-11T09:18:33.834Z,100674.79
2017-10-11T09:21:02.517Z,100675.47
2017-10-11T09:23:31.167Z,100673.97
2017-10-11T09:25:59.815Z,100673.71
2017-10-11T09:28:28.429Z,100672.81
2017-10-11T09:30:56.939Z,100670.49
2017-10-11T09:33:25.443Z,100666.83
2017-10-11T09:35:54.089Z,100677.88
2017-10-11T09:38:22.757Z,100667.37
2017-10-11T09:40:51.394Z,100664.62
2017-10-11T09:43:20.042Z,100664.41
2017-10-11T09:45:48.663Z,100669.83
2017-10-11T09:48:17.334Z,100676.24
2017-10-11T09:50:45.948Z,100667.38
2017-10-11T09:53:14.553Z,100672.45
2017-10-11T09:55:43.239Z,100671.00
2017-10-11T09:58:11.868Z,100674.36
2017-10-11T10:00:40.524Z,100672.08
2017-10-11T10:03:09.135Z,100675.03
2017-10-11T10:05:37.798Z,100677.48
2017-10-11T10:08:06.417Z,100679.56
2017-10-11T10:10:34.883Z,100685.19
2017-10-11T10:13:03.395Z,100683.08
2017-10-11T10:15:31.998Z,100684.78
2017-10-11T10:18:00.671Z,100684.63
2017-10-11T10:20:29.333Z,100686.43
2017-10-11T10:22:58.010Z,100685.39
2017-10-11T10:25:26.642Z,100686.38
2017-10-11T10:27:55.264Z,100684.47
2017-10-11T10:30:23.916Z,100683.23
2017-10-11T10:32:52.385Z,100687.41
2017-10-11T10:35:21.043Z,100685.70
2017-10-11T10:37:49.679Z,100683.53
2017-10-11T10:40:18.392Z,100689.06
2017-10-11T10:42:47.014Z,100684.30
2017-10-11T10:45:15.669Z,100678.52
2017-10-11T10:47:44.305Z,100676.19
2017-10-11T10:50:12.962Z,100678.26
2017-10-11T10:52:41.614Z,100680.79
2017-10-11T10:55:10.259Z,100685.60
2017-10-11T10:57:38.919Z,100677.84
2017-10-11T11:00:07.539Z,100683.42
2017-10-11T11:02:36.204Z,100678.77
2017-10-11T11:05:04.696Z,100682.97
2017-10-11T11:07:35.861Z,100678.77
2017-10-11T11:10:04.484Z,100682.66
2017-10-11T11:12:33.134Z,100679.19
2017-10-11T11:15:01.746Z,100684.00
2017-10-11T11:17:33.325Z,100683.53
2017-10-11T11:20:02.100Z,100685.29
2017-10-11T11:22:30.734Z,100687.16
2017-10-11T11:24:59.377Z,100689.73
2017-10-11T11:27:28.034Z,100687.63
2017-10-11T11:29:56.663Z,100678.21
2017-10-11T11:32:25.275Z,100681.63
2017-10-11T11:34:53.929Z,100689.79
2017-10-11T11:37:22.546Z,100680.74
2017-10-11T11:39:51.171Z,100690.26
2017-10-11T11:42:19.851Z,100684.67
2017-10-11T11:44:48.467Z,100685.03
2017-10-11T11:47:17.139Z,100690.36
2017-10-11T11:49:45.788Z,100686.02
2017-10-11T11:52:14.469Z,100682.14
2017-10-11T11:54:43.266Z,100679.97
2017-10-11T11:57:11.923Z,100680.59
2017-10-11T11:59:40.595Z,100686.48
2017-10-11T12:02:09.231Z,100682.55
2017-10-11T12:04:37.890Z,100683.08
2017-10-11T12:07:06.500Z,100680.38
2017-10-11T12:09:35.170Z,100683.08
2017-10-11T12:12:03.654Z,100682.50
2017-10-11T12:14:32.325Z,100679.40
2017-10-11T12:17:00.930Z,100681.63
2017-10-11T12:19:29.604Z,100685.03
2017-10-11T12:21:58.228Z,100687.56
2017-10-11T12:24:26.846Z,100684.77
2017-10-11T12:26:55.502Z,100696.14
2017-10-11T12:29:24.167Z,100682.70
2017-10-11T12:31:52.774Z,100684.72
2017-10-11T12:34:21.385Z,100691.08
2017-10-11T12:36:50.046Z,100686.36
2017-10-11T12:39:18.676Z,100684.55
2017-10-11T12:41:47.306Z,100686.78
2017-10-11T12:44:15.983Z,100684.48
2017-10-11T12:46:44.599Z,100690.91
2017-10-11T12:49:13.239Z,100687.33
2017-10-11T12:51:42.000Z,100679.58
2017-10-11T12:54:10.619Z,100679.88
2017-10-11T12:56:39.241Z,100681.95
2017-10-11T12:59:07.897Z,100690.58
2017-10-11T13:01:36.523Z,100687.89
2017-10-11T13:04:05.170Z,100692.13
2017-10-11T13:06:33.810Z,100691.08
2017-10-11T13:09:02.510Z,100687.66
2017-10-11T13:11:31.118Z,100683.73
2017-10-11T13:13:59.792Z,100682.38
2017-10-11T13:16:28.403Z,100684.61
2017-10-11T13:18:57.036Z,100686.62
2017-10-11T13:21:25.718Z,100687.81
2017-10-11T13:23:54.369Z,100679.23
2017-10-11T13:26:23.022Z,100684.34
2017-10-11T13:28:51.633Z,100688.58
2017-10-11T13:31:20.301Z,100686.25
2017-10-11T13:33:48.913Z,100683.72
2017-10-11T13:36:17.550Z,100691.53
2017-10-11T13:38:46.225Z,100685.02
2017-10-11T13:41:14.841Z,100689.20
2017-10-11T13:43:43.463Z,100684.96
2017-10-11T13:46:12.116Z,100687.49
2017-10-11T13:48:40.791Z,100696.05
2017-10-11T13:51:09.406Z,100689.25
2017-10-11T13:53:38.088Z,100691.02
2017-10-11T13:56:06.697Z,100686.61
2017-10-11T13:58:35.342Z,100682.38
2017-10-11T14:01:03.999Z,100684.96
2017-10-11T14:03:32.650Z,100680.31
2017-10-11T14:06:01.313Z,100686.25
2017-10-11T14:08:29.920Z,100675.08
2017-10-11T14:10:58.586Z,100682.72
2017-10-11T14:13:27.269Z,100683.14
2017-10-11T14:15:55.890Z,100681.13
2017-10-11T14:18:24.565Z,100684.49
2017-10-11T14:20:53.208Z,100689.77
2017-10-11T14:23:21.716Z,100681.49
2017-10-11T14:25:50.187Z,100690.00
2017-10-11T14:28:18.713Z,100684.55
2017-10-11T14:30:47.181Z,100690.91
2017-10-11T14:33:15.652Z,100677.15
2017-10-11T14:35:44.323Z,100687.42
2017-10-11T14:38:12.954Z,100679.20
2017-10-11T14:40:41.565Z,100676.61
2017-10-11T14:43:10.222Z,100681.26
2017-10-11T14:45:38.879Z,100672.10
2017-10-11T14:48:07.493Z,100669.82
2017-10-11T14:50:36.148Z,100668.47
2017-10-11T14:53:04.768Z,100670.70
2017-10-11T14:55:33.426Z,100669.66
2017-10-11T14:58:02.166Z,100666.61
2017-10-11T15:00:30.839Z,100673.84
2017-10-11T15:02:59.512Z,100669.03
2017-10-11T15:05:28.242Z,100671.13
2017-10-11T15:07:56.904Z,100677.55
2017-10-11T15:10:25.588Z,100675.97
2017-10-11T15:12:54.068Z,100679.66
2017-10-11T15:15:22.586Z,100665.16
2017-10-11T15:17:51.233Z,100680.13
2017-10-11T15:20:19.898Z,100680.65
2017-10-11T15:22:48.504Z,100671.62
2017-10-11T15:25:17.167Z,100674.66
2017-10-11T15:27:46.237Z,100671.78
2017-10-11T15:30:15.020Z,100676.18
2017-10-11T15:32:43.896Z,100669.66
2017-10-11T15:35:14.552Z,100671.42
2017-10-11T15:37:49.566Z,100672.77
2017-10-11T15:40:29.982Z,100677.00
2017-10-11T15:43:10.897Z,100690.56
2017-10-11T15:45:48.135Z,100670.76
2017-10-11T15:48:27.782Z,100679.45
2017-10-11T15:50:59.889Z,100682.50
2017-10-11T15:53:34.773Z,100684.73
2017-10-11T15:56:15.751Z,100680.84
2017-10-11T15:58:50.755Z,100687.47
2017-10-11T16:01:26.406Z,100680.56
2017-10-11T16:04:00.219Z,100680.15
2017-10-11T16:06:37.429Z,100679.02
2017-10-11T16:09:15.699Z,100679.84
2017-10-11T16:11:49.661Z,100677.36
2017-10-11T16:14:24.573Z,100680.00
2017-10-11T16:17:00.301Z,100676.28
2017-10-11T16:19:37.152Z,100672.05
2017-10-11T16:22:13.348Z,100671.58
2017-10-11T16:24:51.784Z,100672.45
2017-10-11T16:27:26.394Z,100676.91
2017-10-11T16:29:59.670Z,100672.67
2017-10-11T16:32:30.774Z,100679.08
2017-10-11T16:35:06.732Z,100670.55
2017-10-11T16:37:49.173Z,100675.33
2017-10-11T16:40:25.863Z,100669.84
2017-10-11T16:43:02.750Z,100667.48
2017-10-11T16:45:32.585Z,100670.94
2017-10-11T16:48:05.976Z,100669.18
2017-10-11T16:50:45.879Z,100674.45
2017-10-11T16:53:21.276Z,100672.70
2017-10-11T16:56:01.750Z,100667.22
2017-10-11T16:58:43.189Z,100667.40
2017-10-11T17:01:21.802Z,100672.27
2017-10-11T17:04:05.262Z,100674.80
2017-10-11T17:06:41.749Z,100666.83
2017-10-11T17:09:15.424Z,100673.30
2017-10-11T17:11:57.189Z,100676.81
2017-10-11T17:14:40.067Z,100679.40
2017-10-11T17:17:18.156Z,100675.21
2017-10-11T17:19:56.022Z,100675.44
2017-10-11T17:22:37.171Z,100684.05
2017-10-11T17:25:17.115Z,100676.38
2017-10-11T17:27:50.669Z,100681.23
2017-10-11T17:30:25.441Z,100685.98
2017-10-11T17:33:01.973Z,100677.41
2017-10-11T17:35:38.431Z,100673.64
2017-10-11T17:38:17.674Z,100678.91
2017-10-11T17:40:54.700Z,100676.84
2017-10-11T17:43:34.720Z,100685.06
2017-10-11T17:46:13.240Z,100677.47
2017-10-11T17:48:49.484Z,100679.66
2017-10-11T17:51:30.001Z,100671.13
2017-10-11T17:54:05.736Z,100674.23
2017-10-11T17:56:41.744Z,100664.00
2017-10-11T17:59:17.806Z,100670.09
2017-10-11T18:01:55.636Z,100667.69
2017-10-11T18:04:28.938Z,100669.39
2017-10-11T18:07:04.743Z,100672.48
2017-10-11T18:09:43.966Z,100680.70
2017-10-11T18:12:24.254Z,100677.73
2017-10-11T18:14:53.447Z,100680.83
2017-10-11T18:17:29.857Z,100674.01
2017-10-11T18:20:09.373Z,100678.30
2017-10-11T18:22:48.520Z,100678.30
2017-10-11T18:25:23.944Z,100669.88
2017-10-11T18:27:55.314Z,100673.28
2017-10-11T18:30:29.267Z,100665.22
2017-10-11T18:33:01.155Z,100674.78
2017-10-11T18:35:32.304Z,100674.31
2017-10-11T18:38:00.966Z,100671.89
2017-10-11T18:40:35.611Z,100672.42
2017-10-11T18:43:11.055Z,100669.02
2017-10-11T18:45:41.607Z,100672.89
2017-10-11T18:48:18.051Z,100672.11
2017-10-11T18:50:54.397Z,100672.11
2017-10-11T18:53:33.222Z,100673.50
2017-10-11T18:56:14.614Z,100677.95
2017-10-11T18:58:52.699Z,100669.78
2017-10-11T19:01:32.019Z,100668.64
2017-10-11T19:04:11.079Z,100675.93
2017-10-11T19:06:45.246Z,100673.03
2017-10-11T19:09:23.250Z,100670.11
2017-10-11T19:12:02.175Z,100669.90
2017-10-11T19:14:41.679Z,100666.80
2017-10-11T19:17:15.895Z,100669.53
2017-10-11T19:19:47.186Z,100667.67
2017-10-11T19:22:18.342Z,100670.83
2017-10-11T19:24:49.638Z,100669.12
2017-10-11T19:27:22.703Z,100670.41
2017-10-11T19:29:53.688Z,100659.36
2017-10-11T19:32:25.485Z,100674.91
2017-10-11T19:34:57.073Z,100656.41
2017-10-11T19:37:29.940Z,100662.92
2017-10-11T19:42:58.843Z,100658.27
2017-10-11T19:45:40.918Z,100651.01
2017-10-11T19:48:13.205Z,100657.03
2017-10-11T19:50:45.728Z,100654.93
2017-10-11T19:53:18.435Z,100645.12
2017-10-11T19:55:49.546Z,100642.53
2017-10-11T19:58:18.158Z,100641.66
2017-10-11T20:00:57.952Z,100628.02
2017-10-11T20:03:27.299Z,100624.14
2017-10-11T20:05:57.246Z,100617.33
2017-10-11T20:08:26.314Z,100628.13
2017-10-11T20:10:54.942Z,100622.18
2017-10-11T20:13:23.683Z,100629.87
2017-10-11T20:16:00.637Z,100623.01
2017-10-11T20:18:35.223Z,100617.95
2017-10-11T20:21:09.172Z,100615.52
2017-10-11T20:23:41.476Z,100604.31
2017-10-11T20:26:13.952Z,100606.48
2017-10-11T20:28:46.847Z,100604.36
2017-10-11T20:31:19.749Z,100602.22
2017-10-11T20:34:02.218Z,100603.09
2017-10-11T20:36:32.938Z,100594.57
2017-10-11T20:39:04.177Z,100605.83
2017-10-11T20:41:32.786Z,100601.59
2017-10-11T20:44:02.683Z,100603.66
2017-10-11T20:46:33.621Z,100605.15
2017-10-11T20:49:04.029Z,100602.20
2017-10-11T20:51:35.176Z,100604.33
2017-10-11T20:54:06.427Z,100599.16
2017-10-11T20:56:37.153Z,100604.84
2017-10-11T20:59:05.815Z,100603.55
2017-10-11T21:01:34.451Z,100597.56
2017-10-11T21:04:03.103Z,100607.05
2017-10-11T21:06:31.741Z,100602.00
2017-10-11T21:09:00.393Z,100590.84
2017-10-11T21:11:29.041Z,100600.75
2017-10-11T21:13:57.654Z,100595.59
2017-10-11T21:16:26.326Z,100597.00
2017-10-11T21:18:54.970Z,100591.02
2017-10-11T21:21:23.635Z,100587.25
2017-10-11T21:23:52.260Z,100592.45
2017-10-11T21:26:20.925Z,100588.23
2017-10-11T21:28:49.633Z,100573.52
2017-10-11T21:31:18.251Z,100580.89
2017-10-11T21:33:46.861Z,100575.73
2017-10-11T21:36:15.539Z,100573.20
2017-10-11T21:38:44.161Z,100569.80
2017-10-11T21:41:12.757Z,100564.73
2017-10-11T21:43:41.418Z,100563.03
2017-10-11T21:46:10.035Z,100560.19
2017-10-11T21:48:38.649Z,100557.55
2017-10-11T21:51:07.326Z,100553.76
2017-10-11T21:53:35.935Z,100550.55
2017-10-11T21:56:04.574Z,100553.08
2017-10-11T21:58:33.185Z,100545.39
2017-10-11T22:01:02.399Z,100537.85
2017-10-11T22:03:31.032Z,100538.73
2017-10-11T22:05:59.716Z,100538.31
2017-10-11T22:08:28.351Z,100540.17
2017-10-11T22:10:57.031Z,100541.52
2017-10-11T22:13:25.642Z,100547.91
2017-10-11T22:15:54.310Z,100540.30
2017-10-11T22:18:23.015Z,100538.11
2017-10-11T22:20:51.670Z,100536.94
2017-10-11T22:23:20.324Z,100535.80
2017-10-11T22:25:48.942Z,100528.88
2017-10-11T22:28:17.590Z,100530.38
2017-10-11T22:30:46.050Z,100523.41
2017-10-11T22:33:14.655Z,100529.14
2017-10-11T22:35:43.166Z,100522.27
2017-10-11T22:38:11.802Z,100522.84
2017-10-11T22:40:40.458Z,100520.25
2017-10-11T22:43:09.069Z,100507.77
2017-10-11T22:45:37.689Z,100509.13
2017-10-11T22:48:06.349Z,100505.66
2017-10-11T22:50:34.962Z,100504.13
2017-10-11T22:53:03.639Z,100497.63
2017-10-11T22:55:32.277Z,100489.52
2017-10-11T22:58:00.898Z,100495.92
2017-10-11T23:00:29.549Z,100482.71
2017-10-11T23:02:58.215Z,100481.98
2017-10-11T23:05:26.876Z,100478.99
2017-10-11T23:07:55.480Z,100472.95
2017-10-11T23:10:24.221Z,100465.22
2017-10-11T23:12:52.833Z,100472.59
2017-10-11T23:15:21.513Z,100471.36
2017-10-11T23:17:50.123Z,100464.39
2017-10-11T23:20:18.797Z,100452.83
2017-10-11T23:22:47.431Z,100457.27
2017-10-11T23:25:15.905Z,100454.64
2017-10-11T23:27:44.559Z,100460.21
2017-10-11T23:30:13.175Z,100458.66
2017-10-11T23:32:41.836Z,100451.34
2017-10-11T23:35:10.456Z,100441.02
2017-10-11T23:37:39.070Z,100446.13
2017-10-11T23:40:07.721Z,100440.27
2017-10-11T23:42:45.768Z,100434.16
2017-10-11T23:45:24.326Z,100438.03
2017-10-11T23:48:05.411Z,100426.01
2017-10-11T23:50:40.678Z,100432.11
2017-10-11T23:53:16.878Z,100429.02
2017-10-11T23:55:50.250Z,100425.56
2017-10-11T23:58:20.686Z,100413.13
